sensor_id;sensor_type;location;lat;lon;timestamp;temperature;humidity
20929;DHT22;21895;47.072;15.132;2023-05-23T00:01:08;14.80;99.90
20929;DHT22;21895;47.072;15.132;2023-05-23T00:03:35;14.90;99.90
20929;DHT22;21895;47.072;15.132;2023-05-23T00:06:05;15.00;99.90
20929;DHT22;21895;47.072;15.132;2023-05-23T00:08:32;15.20;99.90
20929;DHT22;21895;47.072;15.132;2023-05-23T00:10:58;15.30;99.90
20929;DHT22;21895;47.072;15.132;2023-05-23T00:13:25;15.20;99.90
20929;DHT22;21895;47.072;15.132;2023-05-23T00:15:51;15.10;99.90
20929;DHT22;21895;47.072;15.132;2023-05-23T00:18:18;15.10;99.90
20929;DHT22;21895;47.072;15.132;2023-05-23T00:20:45;15.10;99.90
20929;DHT22;21895;47.072;15.132;2023-05-23T00:23:12;15.10;99.90
20929;DHT22;21895;47.072;15.132;2023-05-23T00:25:46;15.10;99.90
20929;DHT22;21895;47.072;15.132;2023-05-23T00:28:18;15.10;99.90
20929;DHT22;21895;47.072;15.132;2023-05-23T00:30:44;15.10;99.90
20929;DHT22;21895;47.072;15.132;2023-05-23T00:33:11;15.20;99.90
20929;DHT22;21895;47.072;15.132;2023-05-23T00:35:40;15.10;99.90
20929;DHT22;21895;47.072;15.132;2023-05-23T00:38:07;15.10;99.90
20929;DHT22;21895;47.072;15.132;2023-05-23T00:40:36;15.10;99.90
20929;DHT22;21895;47.072;15.132;2023-05-23T00:43:02;15.00;99.90
20929;DHT22;21895;47.072;15.132;2023-05-23T00:45:29;15.10;99.90
20929;DHT22;21895;47.072;15.132;2023-05-23T00:47:56;15.10;99.90
20929;DHT22;21895;47.072;15.132;2023-05-23T00:50:24;15.00;99.90
20929;DHT22;21895;47.072;15.132;2023-05-23T00:52:55;15.00;99.90
20929;DHT22;21895;47.072;15.132;2023-05-23T00:55:23;15.00;99.90
20929;DHT22;21895;47.072;15.132;2023-05-23T00:57:52;15.00;99.90
20929;DHT22;21895;47.072;15.132;2023-05-23T01:00:25;15.10;99.90
20929;DHT22;21895;47.072;15.132;2023-05-23T01:02:52;15.20;99.90
20929;DHT22;21895;47.072;15.132;2023-05-23T01:05:20;15.20;99.90
20929;DHT22;21895;47.072;15.132;2023-05-23T01:07:50;15.10;99.90
20929;DHT22;21895;47.072;15.132;2023-05-23T01:10:20;15.10;99.90
20929;DHT22;21895;47.072;15.132;2023-05-23T01:14:27;15.00;99.90
20929;DHT22;21895;47.072;15.132;2023-05-23T01:17:14;14.70;99.90
20929;DHT22;21895;47.072;15.132;2023-05-23T01:19:58;14.70;99.90
20929;DHT22;21895;47.072;15.132;2023-05-23T01:29:56;14.90;99.90
20929;DHT22;21895;47.072;15.132;2023-05-23T01:32:24;14.90;99.90
20929;DHT22;21895;47.072;15.132;2023-05-23T01:34:53;15.00;99.90
20929;DHT22;21895;47.072;15.132;2023-05-23T01:37:21;15.00;99.90
20929;DHT22;21895;47.072;15.132;2023-05-23T01:39:47;15.00;99.90
20929;DHT22;21895;47.072;15.132;2023-05-23T01:42:14;14.90;99.90
20929;DHT22;21895;47.072;15.132;2023-05-23T01:44:43;14.80;99.90
20929;DHT22;21895;47.072;15.132;2023-05-23T01:47:11;14.70;99.90
20929;DHT22;21895;47.072;15.132;2023-05-23T01:49:39;14.70;99.90
20929;DHT22;21895;47.072;15.132;2023-05-23T01:52:07;14.70;99.90
20929;DHT22;21895;47.072;15.132;2023-05-23T01:54:38;14.60;99.90
20929;DHT22;21895;47.072;15.132;2023-05-23T01:57:07;14.60;99.90
20929;DHT22;21895;47.072;15.132;2023-05-23T01:59:36;14.60;99.90
20929;DHT22;21895;47.072;15.132;2023-05-23T02:02:03;14.70;99.90
20929;DHT22;21895;47.072;15.132;2023-05-23T02:04:31;14.60;99.90
20929;DHT22;21895;47.072;15.132;2023-05-23T02:06:57;14.50;99.90
20929;DHT22;21895;47.072;15.132;2023-05-23T02:09:24;14.50;99.90
20929;DHT22;21895;47.072;15.132;2023-05-23T02:11:50;14.40;99.90
20929;DHT22;21895;47.072;15.132;2023-05-23T02:14:17;14.50;99.90
20929;DHT22;21895;47.072;15.132;2023-05-23T02:16:44;14.50;99.90
20929;DHT22;21895;47.072;15.132;2023-05-23T02:19:11;14.50;99.90
20929;DHT22;21895;47.072;15.132;2023-05-23T02:21:37;14.40;99.90
20929;DHT22;21895;47.072;15.132;2023-05-23T02:24:04;14.50;99.90
20929;DHT22;21895;47.072;15.132;2023-05-23T02:26:30;14.50;99.90
20929;DHT22;21895;47.072;15.132;2023-05-23T02:28:57;14.50;99.90
20929;DHT22;21895;47.072;15.132;2023-05-23T02:31:24;14.20;99.90
20929;DHT22;21895;47.072;15.132;2023-05-23T02:33:51;14.00;99.90
20929;DHT22;21895;47.072;15.132;2023-05-23T02:36:18;13.80;99.90
20929;DHT22;21895;47.072;15.132;2023-05-23T02:38:45;13.80;99.90
20929;DHT22;21895;47.072;15.132;2023-05-23T02:41:11;13.90;99.90
20929;DHT22;21895;47.072;15.132;2023-05-23T02:43:38;13.90;99.90
20929;DHT22;21895;47.072;15.132;2023-05-23T02:46:04;13.70;99.90
20929;DHT22;21895;47.072;15.132;2023-05-23T02:48:31;13.70;99.90
20929;DHT22;21895;47.072;15.132;2023-05-23T02:50:57;13.60;99.90
20929;DHT22;21895;47.072;15.132;2023-05-23T02:53:24;13.70;99.90
20929;DHT22;21895;47.072;15.132;2023-05-23T02:55:51;13.90;99.90
20929;DHT22;21895;47.072;15.132;2023-05-23T02:58:17;14.10;99.90
20929;DHT22;21895;47.072;15.132;2023-05-23T03:00:45;14.10;99.90
20929;DHT22;21895;47.072;15.132;2023-05-23T03:03:12;14.10;99.90
20929;DHT22;21895;47.072;15.132;2023-05-23T03:05:38;14.10;99.90
20929;DHT22;21895;47.072;15.132;2023-05-23T03:08:05;14.10;99.90
20929;DHT22;21895;47.072;15.132;2023-05-23T03:10:32;14.00;99.90
20929;DHT22;21895;47.072;15.132;2023-05-23T03:12:58;14.00;99.90
20929;DHT22;21895;47.072;15.132;2023-05-23T03:15:25;14.10;99.90
20929;DHT22;21895;47.072;15.132;2023-05-23T03:17:51;14.10;99.90
20929;DHT22;21895;47.072;15.132;2023-05-23T03:20:18;14.10;99.90
20929;DHT22;21895;47.072;15.132;2023-05-23T03:22:45;14.20;99.90
20929;DHT22;21895;47.072;15.132;2023-05-23T03:25:13;14.10;99.90
20929;DHT22;21895;47.072;15.132;2023-05-23T03:27:41;14.00;99.90
20929;DHT22;21895;47.072;15.132;2023-05-23T03:30:08;13.90;99.90
20929;DHT22;21895;47.072;15.132;2023-05-23T03:32:35;13.80;99.90
20929;DHT22;21895;47.072;15.132;2023-05-23T03:35:02;13.60;99.90
20929;DHT22;21895;47.072;15.132;2023-05-23T03:37:29;13.60;99.90
20929;DHT22;21895;47.072;15.132;2023-05-23T03:39:55;13.60;99.90
20929;DHT22;21895;47.072;15.132;2023-05-23T03:42:22;13.80;99.90
20929;DHT22;21895;47.072;15.132;2023-05-23T03:44:48;14.00;99.90
20929;DHT22;21895;47.072;15.132;2023-05-23T03:47:15;14.10;99.90
20929;DHT22;21895;47.072;15.132;2023-05-23T03:49:41;14.20;99.90
20929;DHT22;21895;47.072;15.132;2023-05-23T03:52:10;14.30;99.90
20929;DHT22;21895;47.072;15.132;2023-05-23T03:54:36;14.30;99.90
20929;DHT22;21895;47.072;15.132;2023-05-23T03:57:03;14.40;99.90
20929;DHT22;21895;47.072;15.132;2023-05-23T03:59:29;14.50;99.90
20929;DHT22;21895;47.072;15.132;2023-05-23T04:01:56;14.40;99.90
20929;DHT22;21895;47.072;15.132;2023-05-23T04:04:24;14.30;99.90
20929;DHT22;21895;47.072;15.132;2023-05-23T04:06:51;14.20;99.90
20929;DHT22;21895;47.072;15.132;2023-05-23T04:09:17;14.40;99.90
20929;DHT22;21895;47.072;15.132;2023-05-23T04:11:44;14.40;99.90
20929;DHT22;21895;47.072;15.132;2023-05-23T04:14:12;14.30;99.90
20929;DHT22;21895;47.072;15.132;2023-05-23T04:16:38;14.10;99.90
20929;DHT22;21895;47.072;15.132;2023-05-23T04:19:06;14.10;99.90
20929;DHT22;21895;47.072;15.132;2023-05-23T04:21:33;14.20;99.90
20929;DHT22;21895;47.072;15.132;2023-05-23T04:24:00;14.20;99.90
20929;DHT22;21895;47.072;15.132;2023-05-23T04:26:27;14.20;99.90
20929;DHT22;21895;47.072;15.132;2023-05-23T04:28:54;14.50;99.90
20929;DHT22;21895;47.072;15.132;2023-05-23T04:31:21;14.80;99.90
20929;DHT22;21895;47.072;15.132;2023-05-23T04:33:48;14.80;99.90
20929;DHT22;21895;47.072;15.132;2023-05-23T04:36:14;15.00;99.90
20929;DHT22;21895;47.072;15.132;2023-05-23T04:38:41;15.10;99.90
20929;DHT22;21895;47.072;15.132;2023-05-23T04:41:08;15.30;99.90
20929;DHT22;21895;47.072;15.132;2023-05-23T04:43:38;15.50;99.90
20929;DHT22;21895;47.072;15.132;2023-05-23T04:46:10;15.70;99.90
20929;DHT22;21895;47.072;15.132;2023-05-23T04:48:38;15.90;99.90
20929;DHT22;21895;47.072;15.132;2023-05-23T04:51:05;16.00;99.90
20929;DHT22;21895;47.072;15.132;2023-05-23T04:53:33;16.10;99.90
20929;DHT22;21895;47.072;15.132;2023-05-23T04:56:01;16.20;99.90
20929;DHT22;21895;47.072;15.132;2023-05-23T04:58:28;16.40;99.90
20929;DHT22;21895;47.072;15.132;2023-05-23T05:00:56;16.50;99.90
20929;DHT22;21895;47.072;15.132;2023-05-23T05:03:23;16.90;99.90
20929;DHT22;21895;47.072;15.132;2023-05-23T05:05:51;17.10;99.90
20929;DHT22;21895;47.072;15.132;2023-05-23T05:08:18;17.50;99.90
20929;DHT22;21895;47.072;15.132;2023-05-23T05:10:45;17.80;99.90
20929;DHT22;21895;47.072;15.132;2023-05-23T05:13:11;18.20;99.90
20929;DHT22;21895;47.072;15.132;2023-05-23T05:15:38;18.50;99.90
20929;DHT22;21895;47.072;15.132;2023-05-23T05:18:04;18.80;99.90
20929;DHT22;21895;47.072;15.132;2023-05-23T05:20:31;19.00;99.90
20929;DHT22;21895;47.072;15.132;2023-05-23T05:22:58;19.30;99.90
20929;DHT22;21895;47.072;15.132;2023-05-23T05:25:24;19.50;99.90
20929;DHT22;21895;47.072;15.132;2023-05-23T05:27:52;19.80;99.90
20929;DHT22;21895;47.072;15.132;2023-05-23T05:30:19;20.10;99.90
20929;DHT22;21895;47.072;15.132;2023-05-23T05:32:45;20.40;99.90
20929;DHT22;21895;47.072;15.132;2023-05-23T05:35:12;20.60;99.90
20929;DHT22;21895;47.072;15.132;2023-05-23T05:37:39;20.70;99.90
20929;DHT22;21895;47.072;15.132;2023-05-23T05:40:06;21.00;99.90
20929;DHT22;21895;47.072;15.132;2023-05-23T05:42:33;21.10;99.90
20929;DHT22;21895;47.072;15.132;2023-05-23T05:45:00;21.10;99.90
20929;DHT22;21895;47.072;15.132;2023-05-23T05:47:26;21.20;99.90
20929;DHT22;21895;47.072;15.132;2023-05-23T05:49:53;21.40;99.90
20929;DHT22;21895;47.072;15.132;2023-05-23T05:52:20;21.30;99.90
20929;DHT22;21895;47.072;15.132;2023-05-23T05:54:46;21.50;99.90
20929;DHT22;21895;47.072;15.132;2023-05-23T05:57:13;21.40;99.90
20929;DHT22;21895;47.072;15.132;2023-05-23T05:59:40;21.70;99.90
20929;DHT22;21895;47.072;15.132;2023-05-23T06:02:06;21.70;99.90
20929;DHT22;21895;47.072;15.132;2023-05-23T06:04:33;21.70;99.90
20929;DHT22;21895;47.072;15.132;2023-05-23T06:06:59;21.80;99.90
20929;DHT22;21895;47.072;15.132;2023-05-23T06:09:26;21.80;99.90
20929;DHT22;21895;47.072;15.132;2023-05-23T06:11:53;22.00;99.90
20929;DHT22;21895;47.072;15.132;2023-05-23T06:14:19;22.20;99.90
20929;DHT22;21895;47.072;15.132;2023-05-23T06:16:46;22.40;99.90
20929;DHT22;21895;47.072;15.132;2023-05-23T06:19:13;22.50;99.90
20929;DHT22;21895;47.072;15.132;2023-05-23T06:21:39;22.70;99.60
20929;DHT22;21895;47.072;15.132;2023-05-23T06:24:06;23.00;99.00
20929;DHT22;21895;47.072;15.132;2023-05-23T06:26:32;23.30;98.00
20929;DHT22;21895;47.072;15.132;2023-05-23T06:28:59;23.50;98.00
20929;DHT22;21895;47.072;15.132;2023-05-23T06:31:26;23.80;97.80
20929;DHT22;21895;47.072;15.132;2023-05-23T06:33:52;24.10;96.80
20929;DHT22;21895;47.072;15.132;2023-05-23T06:36:19;24.30;96.80
20929;DHT22;21895;47.072;15.132;2023-05-23T06:38:46;24.60;96.30
20929;DHT22;21895;47.072;15.132;2023-05-23T06:41:13;24.50;95.90
20929;DHT22;21895;47.072;15.132;2023-05-23T06:43:42;24.20;95.60
20929;DHT22;21895;47.072;15.132;2023-05-23T06:46:08;24.20;96.00
20929;DHT22;21895;47.072;15.132;2023-05-23T06:48:35;24.10;97.20
20929;DHT22;21895;47.072;15.132;2023-05-23T06:51:01;24.00;96.70
20929;DHT22;21895;47.072;15.132;2023-05-23T06:53:28;24.10;96.70
20929;DHT22;21895;47.072;15.132;2023-05-23T06:55:54;24.10;97.00
20929;DHT22;21895;47.072;15.132;2023-05-23T06:58:21;24.10;96.70
20929;DHT22;21895;47.072;15.132;2023-05-23T07:00:49;24.30;96.80
20929;DHT22;21895;47.072;15.132;2023-05-23T07:03:16;24.40;96.80
20929;DHT22;21895;47.072;15.132;2023-05-23T07:05:43;24.30;96.70
20929;DHT22;21895;47.072;15.132;2023-05-23T07:08:09;24.30;95.60
20929;DHT22;21895;47.072;15.132;2023-05-23T07:10:37;24.30;96.00
20929;DHT22;21895;47.072;15.132;2023-05-23T07:13:06;24.30;95.80
20929;DHT22;21895;47.072;15.132;2023-05-23T07:15:33;24.80;95.40
20929;DHT22;21895;47.072;15.132;2023-05-23T07:17:59;24.90;93.80
20929;DHT22;21895;47.072;15.132;2023-05-23T07:20:26;25.10;93.10
20929;DHT22;21895;47.072;15.132;2023-05-23T07:22:53;25.10;93.00
20929;DHT22;21895;47.072;15.132;2023-05-23T07:25:19;25.10;92.80
20929;DHT22;21895;47.072;15.132;2023-05-23T07:27:48;25.10;93.10
20929;DHT22;21895;47.072;15.132;2023-05-23T07:30:14;25.30;93.80
20929;DHT22;21895;47.072;15.132;2023-05-23T07:32:41;25.40;92.50
20929;DHT22;21895;47.072;15.132;2023-05-23T07:35:08;25.30;94.20
20929;DHT22;21895;47.072;15.132;2023-05-23T07:37:35;25.20;94.30
20929;DHT22;21895;47.072;15.132;2023-05-23T07:40:03;25.20;94.40
20929;DHT22;21895;47.072;15.132;2023-05-23T07:42:30;25.00;93.40
20929;DHT22;21895;47.072;15.132;2023-05-23T07:44:56;25.20;94.70
20929;DHT22;21895;47.072;15.132;2023-05-23T07:47:26;25.40;94.00
20929;DHT22;21895;47.072;15.132;2023-05-23T07:49:53;25.80;93.10
20929;DHT22;21895;47.072;15.132;2023-05-23T07:52:20;26.00;93.10
20929;DHT22;21895;47.072;15.132;2023-05-23T07:54:46;26.30;93.20
20929;DHT22;21895;47.072;15.132;2023-05-23T07:57:13;26.60;90.70
20929;DHT22;21895;47.072;15.132;2023-05-23T07:59:41;26.80;90.70
20929;DHT22;21895;47.072;15.132;2023-05-23T08:02:08;27.10;90.90
20929;DHT22;21895;47.072;15.132;2023-05-23T08:04:34;27.10;86.80
20929;DHT22;21895;47.072;15.132;2023-05-23T08:07:01;27.20;90.60
20929;DHT22;21895;47.072;15.132;2023-05-23T08:09:31;27.10;89.60
20929;DHT22;21895;47.072;15.132;2023-05-23T08:11:58;27.10;90.30
20929;DHT22;21895;47.072;15.132;2023-05-23T08:14:26;27.10;86.10
20929;DHT22;21895;47.072;15.132;2023-05-23T08:17:15;27.20;89.00
20929;DHT22;21895;47.072;15.132;2023-05-23T08:19:41;27.30;85.30
20929;DHT22;21895;47.072;15.132;2023-05-23T08:22:08;27.10;84.80
20929;DHT22;21895;47.072;15.132;2023-05-23T08:24:35;27.20;85.60
20929;DHT22;21895;47.072;15.132;2023-05-23T08:27:02;27.20;86.50
20929;DHT22;21895;47.072;15.132;2023-05-23T08:29:28;27.40;84.10
20929;DHT22;21895;47.072;15.132;2023-05-23T08:31:55;27.50;84.20
20929;DHT22;21895;47.072;15.132;2023-05-23T08:34:22;27.60;84.60
20929;DHT22;21895;47.072;15.132;2023-05-23T08:36:48;27.80;87.20
20929;DHT22;21895;47.072;15.132;2023-05-23T08:39:16;27.90;87.40
20929;DHT22;21895;47.072;15.132;2023-05-23T08:41:42;27.90;85.40
20929;DHT22;21895;47.072;15.132;2023-05-23T08:44:09;27.80;83.90
20929;DHT22;21895;47.072;15.132;2023-05-23T08:46:45;27.90;82.30
20929;DHT22;21895;47.072;15.132;2023-05-23T08:49:16;28.20;83.50
20929;DHT22;21895;47.072;15.132;2023-05-23T08:51:43;28.60;84.50
20929;DHT22;21895;47.072;15.132;2023-05-23T08:54:12;28.70;83.00
20929;DHT22;21895;47.072;15.132;2023-05-23T08:56:39;28.80;80.90
20929;DHT22;21895;47.072;15.132;2023-05-23T08:59:09;28.80;81.60
20929;DHT22;21895;47.072;15.132;2023-05-23T09:01:37;29.10;80.60
20929;DHT22;21895;47.072;15.132;2023-05-23T09:04:05;29.10;78.80
20929;DHT22;21895;47.072;15.132;2023-05-23T09:06:32;29.30;79.50
20929;DHT22;21895;47.072;15.132;2023-05-23T09:09:00;29.60;80.20
20929;DHT22;21895;47.072;15.132;2023-05-23T09:11:26;29.70;83.20
20929;DHT22;21895;47.072;15.132;2023-05-23T09:13:53;29.70;85.20
20929;DHT22;21895;47.072;15.132;2023-05-23T09:16:20;29.80;85.90
20929;DHT22;21895;47.072;15.132;2023-05-23T09:18:47;29.80;84.70
20929;DHT22;21895;47.072;15.132;2023-05-23T09:21:14;29.70;82.50
20929;DHT22;21895;47.072;15.132;2023-05-23T09:23:40;29.50;82.00
20929;DHT22;21895;47.072;15.132;2023-05-23T09:26:09;29.30;82.80
20929;DHT22;21895;47.072;15.132;2023-05-23T09:28:38;29.10;82.10
20929;DHT22;21895;47.072;15.132;2023-05-23T09:31:08;28.70;83.80
20929;DHT22;21895;47.072;15.132;2023-05-23T09:33:46;28.60;82.50
20929;DHT22;21895;47.072;15.132;2023-05-23T09:36:13;28.70;82.80
20929;DHT22;21895;47.072;15.132;2023-05-23T09:38:43;29.00;83.10
20929;DHT22;21895;47.072;15.132;2023-05-23T09:41:11;29.20;84.00
20929;DHT22;21895;47.072;15.132;2023-05-23T09:43:38;29.50;83.20
20929;DHT22;21895;47.072;15.132;2023-05-23T09:46:09;29.50;83.20
20929;DHT22;21895;47.072;15.132;2023-05-23T09:48:36;29.60;82.70
20929;DHT22;21895;47.072;15.132;2023-05-23T09:51:08;29.80;80.40
20929;DHT22;21895;47.072;15.132;2023-05-23T09:53:35;30.10;80.70
20929;DHT22;21895;47.072;15.132;2023-05-23T09:56:03;29.90;79.00
20929;DHT22;21895;47.072;15.132;2023-05-23T09:58:32;29.50;80.80
20929;DHT22;21895;47.072;15.132;2023-05-23T10:01:02;29.10;82.50
20929;DHT22;21895;47.072;15.132;2023-05-23T10:03:50;28.60;83.40
20929;DHT22;21895;47.072;15.132;2023-05-23T10:06:40;28.10;84.20
20929;DHT22;21895;47.072;15.132;2023-05-23T10:09:16;27.90;84.30
20929;DHT22;21895;47.072;15.132;2023-05-23T10:13:06;27.80;85.20
20929;DHT22;21895;47.072;15.132;2023-05-23T10:15:38;27.20;91.60
20929;DHT22;21895;47.072;15.132;2023-05-23T10:18:15;26.80;91.20
20929;DHT22;21895;47.072;15.132;2023-05-23T10:20:51;26.50;90.60
20929;DHT22;21895;47.072;15.132;2023-05-23T10:23:21;26.30;90.60
20929;DHT22;21895;47.072;15.132;2023-05-23T10:25:49;26.10;86.80
20929;DHT22;21895;47.072;15.132;2023-05-23T10:28:17;26.10;89.40
20929;DHT22;21895;47.072;15.132;2023-05-23T10:30:45;26.10;93.60
20929;DHT22;21895;47.072;15.132;2023-05-23T10:33:13;25.80;94.20
20929;DHT22;21895;47.072;15.132;2023-05-23T10:35:55;25.60;93.90
20929;DHT22;21895;47.072;15.132;2023-05-23T10:38:45;25.50;94.40
20929;DHT22;21895;47.072;15.132;2023-05-23T10:42:53;25.50;94.90
20929;DHT22;21895;47.072;15.132;2023-05-23T10:45:25;25.40;96.00
20929;DHT22;21895;47.072;15.132;2023-05-23T10:47:52;25.50;95.80
20929;DHT22;21895;47.072;15.132;2023-05-23T10:50:35;25.60;92.90
20929;DHT22;21895;47.072;15.132;2023-05-23T10:53:03;25.80;91.60
20929;DHT22;21895;47.072;15.132;2023-05-23T10:55:35;26.00;91.40
20929;DHT22;21895;47.072;15.132;2023-05-23T10:58:10;26.10;91.70
20929;DHT22;21895;47.072;15.132;2023-05-23T11:00:52;26.20;93.20
20929;DHT22;21895;47.072;15.132;2023-05-23T11:04:26;26.20;93.30
20929;DHT22;21895;47.072;15.132;2023-05-23T11:06:55;26.50;93.50
20929;DHT22;21895;47.072;15.132;2023-05-23T11:09:22;26.70;92.60
20929;DHT22;21895;47.072;15.132;2023-05-23T11:12:00;27.00;90.70
20929;DHT22;21895;47.072;15.132;2023-05-23T11:15:20;27.40;88.50
20929;DHT22;21895;47.072;15.132;2023-05-23T11:17:53;27.90;88.00
20929;DHT22;21895;47.072;15.132;2023-05-23T11:20:24;28.30;86.20
20929;DHT22;21895;47.072;15.132;2023-05-23T11:23:00;28.80;86.10
20929;DHT22;21895;47.072;15.132;2023-05-23T11:25:46;29.10;82.30
20929;DHT22;21895;47.072;15.132;2023-05-23T11:28:14;28.70;80.20
20929;DHT22;21895;47.072;15.132;2023-05-23T11:30:42;28.50;78.10
20929;DHT22;21895;47.072;15.132;2023-05-23T11:33:13;28.30;78.10
20929;DHT22;21895;47.072;15.132;2023-05-23T11:35:46;28.10;77.90
20929;DHT22;21895;47.072;15.132;2023-05-23T11:38:15;28.10;76.00
20929;DHT22;21895;47.072;15.132;2023-05-23T11:40:47;27.70;76.90
20929;DHT22;21895;47.072;15.132;2023-05-23T11:43:15;27.20;79.40
20929;DHT22;21895;47.072;15.132;2023-05-23T11:45:43;26.40;79.10
20929;DHT22;21895;47.072;15.132;2023-05-23T11:48:13;25.40;78.40
20929;DHT22;21895;47.072;15.132;2023-05-23T11:50:49;24.30;85.80
20929;DHT22;21895;47.072;15.132;2023-05-23T11:53:18;23.20;90.80
20929;DHT22;21895;47.072;15.132;2023-05-23T11:55:56;22.50;93.20
20929;DHT22;21895;47.072;15.132;2023-05-23T11:58:37;22.20;93.30
20929;DHT22;21895;47.072;15.132;2023-05-23T12:01:08;22.00;95.70
20929;DHT22;21895;47.072;15.132;2023-05-23T12:03:49;21.60;97.10
20929;DHT22;21895;47.072;15.132;2023-05-23T12:06:21;21.30;97.70
20929;DHT22;21895;47.072;15.132;2023-05-23T12:08:51;21.30;98.10
20929;DHT22;21895;47.072;15.132;2023-05-23T12:11:17;21.10;97.00
20929;DHT22;21895;47.072;15.132;2023-05-23T12:13:44;21.10;96.60
20929;DHT22;21895;47.072;15.132;2023-05-23T12:16:12;21.30;96.00
20929;DHT22;21895;47.072;15.132;2023-05-23T12:18:42;21.10;95.60
20929;DHT22;21895;47.072;15.132;2023-05-23T12:21:09;21.00;96.30
20929;DHT22;21895;47.072;15.132;2023-05-23T12:23:38;21.10;97.00
20929;DHT22;21895;47.072;15.132;2023-05-23T12:26:05;21.10;98.00
20929;DHT22;21895;47.072;15.132;2023-05-23T12:28:41;20.90;98.00
20929;DHT22;21895;47.072;15.132;2023-05-23T12:31:17;20.90;98.60
20929;DHT22;21895;47.072;15.132;2023-05-23T12:33:47;20.80;99.90
20929;DHT22;21895;47.072;15.132;2023-05-23T12:36:20;20.60;99.70
20929;DHT22;21895;47.072;15.132;2023-05-23T12:38:50;20.50;99.50
20929;DHT22;21895;47.072;15.132;2023-05-23T12:41:18;20.50;99.10
20929;DHT22;21895;47.072;15.132;2023-05-23T12:43:50;20.60;99.10
20929;DHT22;21895;47.072;15.132;2023-05-23T12:46:20;20.60;99.40
20929;DHT22;21895;47.072;15.132;2023-05-23T12:48:51;20.60;99.90
20929;DHT22;21895;47.072;15.132;2023-05-23T12:51:19;20.50;99.90
20929;DHT22;21895;47.072;15.132;2023-05-23T12:53:46;20.50;99.90
20929;DHT22;21895;47.072;15.132;2023-05-23T12:56:13;20.50;99.90
20929;DHT22;21895;47.072;15.132;2023-05-23T12:58:39;20.40;99.90
20929;DHT22;21895;47.072;15.132;2023-05-23T13:01:06;20.50;99.90
20929;DHT22;21895;47.072;15.132;2023-05-23T13:03:32;20.70;99.90
20929;DHT22;21895;47.072;15.132;2023-05-23T13:05:59;20.70;99.90
20929;DHT22;21895;47.072;15.132;2023-05-23T13:08:26;20.70;99.90
20929;DHT22;21895;47.072;15.132;2023-05-23T13:10:54;20.80;99.90
20929;DHT22;21895;47.072;15.132;2023-05-23T13:13:21;20.70;99.90
20929;DHT22;21895;47.072;15.132;2023-05-23T13:15:48;20.70;99.90
20929;DHT22;21895;47.072;15.132;2023-05-23T13:18:17;20.60;99.90
20929;DHT22;21895;47.072;15.132;2023-05-23T13:20:43;20.90;99.90
20929;DHT22;21895;47.072;15.132;2023-05-23T13:23:11;20.80;99.90
20929;DHT22;21895;47.072;15.132;2023-05-23T13:25:37;20.60;99.90
20929;DHT22;21895;47.072;15.132;2023-05-23T13:28:04;20.50;99.90
20929;DHT22;21895;47.072;15.132;2023-05-23T13:30:31;20.40;99.90
20929;DHT22;21895;47.072;15.132;2023-05-23T13:32:58;20.20;99.90
20929;DHT22;21895;47.072;15.132;2023-05-23T13:35:24;20.30;99.90
20929;DHT22;21895;47.072;15.132;2023-05-23T13:37:51;20.40;99.90
20929;DHT22;21895;47.072;15.132;2023-05-23T13:40:19;20.60;99.90
20929;DHT22;21895;47.072;15.132;2023-05-23T13:42:48;20.80;99.90
20929;DHT22;21895;47.072;15.132;2023-05-23T13:45:16;21.10;99.90
20929;DHT22;21895;47.072;15.132;2023-05-23T13:47:43;21.30;99.90
20929;DHT22;21895;47.072;15.132;2023-05-23T13:50:10;21.40;99.90
20929;DHT22;21895;47.072;15.132;2023-05-23T13:52:37;21.60;99.90
20929;DHT22;21895;47.072;15.132;2023-05-23T13:55:07;21.70;99.90
20929;DHT22;21895;47.072;15.132;2023-05-23T13:57:34;21.90;99.90
20929;DHT22;21895;47.072;15.132;2023-05-23T14:00:01;22.10;99.90
20929;DHT22;21895;47.072;15.132;2023-05-23T14:02:28;22.30;99.90
20929;DHT22;21895;47.072;15.132;2023-05-23T14:04:57;22.60;99.90
20929;DHT22;21895;47.072;15.132;2023-05-23T14:07:23;22.80;99.90
20929;DHT22;21895;47.072;15.132;2023-05-23T14:09:50;22.80;99.90
20929;DHT22;21895;47.072;15.132;2023-05-23T14:12:16;22.80;99.90
20929;DHT22;21895;47.072;15.132;2023-05-23T14:14:43;22.60;99.90
20929;DHT22;21895;47.072;15.132;2023-05-23T14:17:15;22.50;99.90
20929;DHT22;21895;47.072;15.132;2023-05-23T14:19:43;22.30;99.90
20929;DHT22;21895;47.072;15.132;2023-05-23T14:22:10;22.20;99.90
20929;DHT22;21895;47.072;15.132;2023-05-23T14:24:36;22.00;99.90
20929;DHT22;21895;47.072;15.132;2023-05-23T14:27:03;21.90;99.90
20929;DHT22;21895;47.072;15.132;2023-05-23T14:29:30;21.80;99.90
20929;DHT22;21895;47.072;15.132;2023-05-23T14:31:56;21.60;99.90
20929;DHT22;21895;47.072;15.132;2023-05-23T14:34:25;21.50;99.90
20929;DHT22;21895;47.072;15.132;2023-05-23T14:36:52;21.40;99.90
20929;DHT22;21895;47.072;15.132;2023-05-23T14:39:18;21.30;99.90
20929;DHT22;21895;47.072;15.132;2023-05-23T14:41:45;21.30;99.90
20929;DHT22;21895;47.072;15.132;2023-05-23T14:44:12;21.10;99.90
20929;DHT22;21895;47.072;15.132;2023-05-23T14:46:38;20.90;99.90
20929;DHT22;21895;47.072;15.132;2023-05-23T14:49:06;20.80;99.90
20929;DHT22;21895;47.072;15.132;2023-05-23T14:51:33;20.60;99.90
20929;DHT22;21895;47.072;15.132;2023-05-23T14:54:15;20.40;99.90
20929;DHT22;21895;47.072;15.132;2023-05-23T14:56:42;20.30;99.90
20929;DHT22;21895;47.072;15.132;2023-05-23T14:59:08;20.40;99.90
20929;DHT22;21895;47.072;15.132;2023-05-23T15:01:35;20.40;99.90
20929;DHT22;21895;47.072;15.132;2023-05-23T15:04:06;20.30;99.90
20929;DHT22;21895;47.072;15.132;2023-05-23T15:06:33;20.20;99.90
20929;DHT22;21895;47.072;15.132;2023-05-23T15:09:00;20.10;99.90
20929;DHT22;21895;47.072;15.132;2023-05-23T15:11:27;19.70;99.90
20929;DHT22;21895;47.072;15.132;2023-05-23T15:13:53;19.20;99.90
20929;DHT22;21895;47.072;15.132;2023-05-23T15:16:20;18.80;99.90
20929;DHT22;21895;47.072;15.132;2023-05-23T15:18:47;18.70;99.90
20929;DHT22;21895;47.072;15.132;2023-05-23T15:21:14;18.50;99.90
20929;DHT22;21895;47.072;15.132;2023-05-23T15:23:40;18.50;99.90
20929;DHT22;21895;47.072;15.132;2023-05-23T15:26:07;18.50;99.90
20929;DHT22;21895;47.072;15.132;2023-05-23T15:28:33;18.30;99.90
20929;DHT22;21895;47.072;15.132;2023-05-23T15:31:00;18.10;99.90
20929;DHT22;21895;47.072;15.132;2023-05-23T15:33:26;17.90;99.90
20929;DHT22;21895;47.072;15.132;2023-05-23T15:35:53;17.80;99.90